Time;durP1;ratioP1;P1;durP2;ratioP2;P2;SDS_P1;SDS_P2;PMS_P1;PMS_P2;Temp;Humidity;BMP_temperature;BMP_pressure;BME280_temperature;BME280_humidity;BME280_pressure;Samples;Min_cycle;Max_cycle;Signal;HPM_P1;HPM_P2
2023/06/30 05:38:58;;;;;;;4.45;1.30;;;27.00;99.70;;;;;;4934046;29;20243;-74
2023/06/30 05:41:25;;;;;;;3.67;1.15;;;27.30;99.10;;;;;;4936359;29;20219;-73
2023/06/30 05:43:52;;;;;;;3.17;1.27;;;27.40;99.20;;;;;;4936139;29;20243;-73
2023/06/30 05:46:19;;;;;;;3.33;1.30;;;27.60;99.20;;;;;;4935839;29;20204;-71
2023/06/30 05:48:46;;;;;;;3.38;1.30;;;27.90;99.30;;;;;;4936282;29;20219;-72
2023/06/30 05:51:13;;;;;;;3.70;1.30;;;28.00;98.20;;;;;;4936092;29;20304;-71
2023/06/30 05:53:40;;;;;;;2.83;1.50;;;28.10;98.10;;;;;;4935611;29;20225;-73
2023/06/30 05:56:08;;;;;;;3.33;1.30;;;28.30;97.80;;;;;;4935858;29;20208;-73
2023/06/30 05:58:37;;;;;;;5.57;1.50;;;28.30;98.00;;;;;;4934715;29;20595;-71
2023/06/30 06:01:04;;;;;;;5.18;1.80;;;28.90;96.90;;;;;;4935560;29;20675;-73
2023/06/30 06:03:31;;;;;;;7.13;2.30;;;29.10;95.00;;;;;;4935810;29;20231;-72
2023/06/30 06:05:58;;;;;;;3.95;1.70;;;29.20;94.20;;;;;;4935879;29;20679;-73
2023/06/30 06:08:25;;;;;;;6.28;2.00;;;29.00;96.30;;;;;;4935232;29;20739;-72
2023/06/30 06:10:52;;;;;;;4.65;1.88;;;29.40;96.00;;;;;;4935445;29;20208;-72
2023/06/30 06:13:37;;;;;;;6.38;2.10;;;29.60;95.20;;;;;;4935192;29;20703;-72
2023/06/30 06:16:05;;;;;;;6.00;1.60;;;29.80;94.00;;;;;;4935012;29;20235;-72
2023/06/30 06:18:33;;;;;;;4.53;1.30;;;29.90;93.70;;;;;;4933562;29;20607;-72
2023/06/30 06:21:00;;;;;;;8.40;4.13;;;29.80;92.10;;;;;;4934748;29;20276;-72
2023/06/30 06:23:27;;;;;;;6.05;1.85;;;29.80;93.90;;;;;;4935296;29;20239;-73
2023/06/30 06:25:54;;;;;;;3.65;1.33;;;29.60;92.40;;;;;;4935255;29;20268;-72
2023/06/30 06:28:21;;;;;;;5.20;1.60;;;29.60;93.40;;;;;;4935958;29;20215;-73
2023/06/30 06:30:49;;;;;;;2.97;1.13;;;29.90;94.40;;;;;;4935758;29;20288;-72
2023/06/30 06:33:16;;;;;;;2.10;1.15;;;29.80;92.20;;;;;;4935657;29;20239;-72
2023/06/30 06:35:43;;;;;;;3.15;1.30;;;29.70;94.40;;;;;;4935837;29;20222;-71
2023/06/30 06:38:10;;;;;;;5.05;1.15;;;30.10;92.70;;;;;;4935398;29;20220;-71
2023/06/30 06:40:37;;;;;;;5.30;1.55;;;30.30;93.30;;;;;;4935524;29;20236;-71
2023/06/30 06:43:04;;;;;;;3.97;1.20;;;30.20;90.50;;;;;;4935748;29;20234;-72
2023/06/30 06:45:31;;;;;;;2.95;1.00;;;30.00;90.40;;;;;;4935570;29;20767;-73
2023/06/30 06:48:20;;;;;;;4.63;1.52;;;29.90;92.40;;;;;;4935822;29;20296;-73
2023/06/30 06:50:47;;;;;;;2.95;1.10;;;30.00;91.60;;;;;;4935275;29;20208;-74
2023/06/30 06:53:18;;;;;;;5.25;1.38;;;30.10;92.50;;;;;;4935445;29;20235;-72
2023/06/30 06:55:45;;;;;;;3.60;1.42;;;30.00;92.40;;;;;;4935530;29;20621;-72
2023/06/30 06:58:12;;;;;;;5.70;1.55;;;29.80;92.10;;;;;;4935256;29;20742;-73
2023/06/30 07:00:39;;;;;;;4.40;1.42;;;30.50;92.50;;;;;;4935500;29;20239;-72
2023/06/30 07:03:06;;;;;;;3.67;1.35;;;30.90;92.00;;;;;;4935370;29;20281;-73
2023/06/30 07:05:34;;;;;;;3.05;1.02;;;31.10;91.40;;;;;;4935377;29;20209;-72
2023/06/30 07:08:01;;;;;;;2.83;1.00;;;30.90;90.40;;;;;;4935210;29;20668;-72
2023/06/30 07:10:30;;;;;;;4.35;1.30;;;31.00;91.10;;;;;;4938836;29;20263;-73
2023/06/30 07:12:57;;;;;;;3.92;1.50;;;30.40;90.90;;;;;;4943898;29;20233;-73
2023/06/30 07:15:23;;;;;;;2.97;0.90;;;30.70;90.20;;;;;;4943244;29;20215;-72
2023/06/30 07:17:50;;;;;;;1.75;0.85;;;31.20;89.20;;;;;;4943468;29;20216;-74
2023/06/30 07:20:17;;;;;;;2.47;1.10;;;31.00;89.70;;;;;;4943333;29;20242;-72
2023/06/30 07:22:45;;;;;;;1.88;1.00;;;30.70;88.90;;;;;;4939500;29;20227;-73
2023/06/30 07:25:12;;;;;;;3.78;1.35;;;30.20;90.30;;;;;;4939749;29;20304;-74
2023/06/30 07:27:39;;;;;;;1.60;0.98;;;30.50;90.70;;;;;;4939461;29;20264;-71
2023/06/30 07:30:07;;;;;;;3.92;1.02;;;30.70;88.90;;;;;;4938836;29;20209;-73
2023/06/30 07:32:35;;;;;;;1.52;0.93;;;31.00;87.50;;;;;;4938994;29;20205;-71
2023/06/30 07:35:02;;;;;;;1.70;0.95;;;30.50;89.30;;;;;;4938705;29;20702;-72
2023/06/30 07:37:29;;;;;;;2.00;0.90;;;30.70;83.70;;;;;;4938309;29;20216;-72
2023/06/30 07:39:57;;;;;;;1.98;0.80;;;31.20;87.70;;;;;;4938423;29;20240;-72
2023/06/30 07:42:24;;;;;;;2.70;0.93;;;31.30;85.00;;;;;;4938112;29;20204;-73
2023/06/30 07:44:51;;;;;;;2.47;1.10;;;31.20;86.60;;;;;;4938158;29;20235;-72
2023/06/30 07:47:18;;;;;;;2.35;1.20;;;31.00;87.20;;;;;;4938167;29;20215;-74
2023/06/30 07:49:45;;;;;;;3.30;1.02;;;31.10;83.70;;;;;;4938381;29;20216;-71
2023/06/30 07:52:12;;;;;;;2.22;0.95;;;31.00;87.00;;;;;;4938239;29;20204;-72
2023/06/30 07:54:40;;;;;;;3.88;1.00;;;30.00;89.30;;;;;;4938236;29;20243;-73
2023/06/30 07:57:08;;;;;;;3.75;1.20;;;29.80;88.60;;;;;;4938361;29;20219;-73
2023/06/30 07:59:35;;;;;;;4.03;1.20;;;29.90;87.70;;;;;;4937907;29;20327;-73
2023/06/30 08:02:02;;;;;;;2.65;1.23;;;30.00;88.40;;;;;;4938150;29;20209;-73
2023/06/30 08:04:29;;;;;;;1.73;1.00;;;29.80;86.50;;;;;;4938116;29;20233;-73
2023/06/30 08:06:56;;;;;;;12.45;6.53;;;29.20;87.20;;;;;;4938024;29;20747;-71
2023/06/30 08:09:22;;;;;;;3.00;1.50;;;29.60;89.40;;;;;;4937975;29;20209;-71
2023/06/30 08:11:49;;;;;;;2.03;1.05;;;29.70;88.30;;;;;;4937865;29;20219;-71
2023/06/30 08:14:17;;;;;;;2.88;1.23;;;29.40;87.60;;;;;;4937663;29;20284;-71
2023/06/30 08:16:45;;;;;;;4.63;1.15;;;29.10;87.40;;;;;;4937813;29;20548;-71
2023/06/30 08:19:11;;;;;;;3.25;1.30;;;28.70;88.30;;;;;;4937501;29;20245;-70
2023/06/30 08:21:38;;;;;;;2.30;0.90;;;28.80;89.00;;;;;;4936910;29;20304;-73
2023/06/30 08:24:05;;;;;;;3.55;1.02;;;29.30;85.20;;;;;;4937480;29;20232;-70
2023/06/30 08:26:32;;;;;;;2.00;0.80;;;29.90;85.20;;;;;;4937571;29;20571;-72
2023/06/30 08:28:59;;;;;;;3.00;1.10;;;30.20;86.30;;;;;;4937394;29;20209;-72
2023/06/30 08:31:28;;;;;;;1.70;0.75;;;30.10;87.40;;;;;;4937302;29;20694;-73
2023/06/30 08:33:55;;;;;;;1.63;0.90;;;29.80;88.00;;;;;;4937125;29;20311;-72
2023/06/30 08:36:23;;;;;;;4.10;1.10;;;29.40;88.30;;;;;;4937540;29;20307;-72
2023/06/30 08:38:50;;;;;;;2.05;0.90;;;29.70;86.90;;;;;;4937049;29;20207;-72
2023/06/30 08:41:17;;;;;;;2.53;0.80;;;29.40;86.00;;;;;;4936965;29;20232;-71
2023/06/30 08:43:45;;;;;;;2.10;0.70;;;28.90;86.30;;;;;;4936989;29;20735;-72
2023/06/30 08:46:16;;;;;;;3.17;1.00;;;28.40;89.30;;;;;;4937359;29;20230;-71
2023/06/30 08:48:45;;;;;;;2.40;0.95;;;28.20;89.20;;;;;;4937056;29;20212;-71
2023/06/30 08:51:12;;;;;;;3.38;1.30;;;28.20;88.90;;;;;;4937122;29;20297;-71
2023/06/30 08:53:39;;;;;;;3.67;1.15;;;28.10;88.40;;;;;;4936775;29;20315;-70
2023/06/30 08:56:08;;;;;;;3.30;0.75;;;28.40;90.10;;;;;;4937113;29;20224;-71
2023/06/30 08:58:35;;;;;;;3.25;0.90;;;28.30;90.20;;;;;;4937273;29;20240;-72
2023/06/30 09:01:02;;;;;;;1.58;0.88;;;28.00;90.20;;;;;;4936857;29;20323;-72
2023/06/30 09:03:30;;;;;;;4.32;0.77;;;27.50;91.20;;;;;;4936792;29;20235;-71
2023/06/30 09:06:00;;;;;;;2.55;0.77;;;27.80;91.60;;;;;;4936700;29;20240;-73
2023/06/30 09:08:34;;;;;;;0.90;0.52;;;27.30;89.60;;;;;;4936384;29;20205;-72
2023/06/30 09:11:04;;;;;;;4.40;0.93;;;27.50;90.60;;;;;;4936883;29;20212;-71
2023/06/30 09:13:32;;;;;;;1.92;0.70;;;26.80;90.20;;;;;;4936315;29;20251;-73
2023/06/30 09:16:00;;;;;;;3.75;0.65;;;27.30;90.60;;;;;;4936610;29;20215;-73
2023/06/30 09:18:27;;;;;;;1.65;0.75;;;27.20;90.20;;;;;;4936597;29;20213;-71
2023/06/30 09:20:54;;;;;;;1.85;0.70;;;27.40;90.60;;;;;;4936576;29;20243;-73
2023/06/30 09:23:22;;;;;;;4.15;0.70;;;27.20;90.10;;;;;;4936605;29;20313;-70
2023/06/30 09:25:49;;;;;;;5.95;0.77;;;26.90;90.60;;;;;;4936541;29;20209;-72
2023/06/30 09:28:16;;;;;;;1.08;0.77;;;27.00;91.00;;;;;;4936569;29;20232;-71
2023/06/30 09:30:47;;;;;;;2.58;0.70;;;26.80;89.10;;;;;;4936478;29;20289;-74
2023/06/30 09:33:15;;;;;;;1.17;0.65;;;26.40;88.00;;;;;;4936131;29;20228;-72
2023/06/30 09:35:44;;;;;;;1.83;0.60;;;26.20;90.80;;;;;;4936469;29;20264;-72
2023/06/30 09:38:12;;;;;;;1.42;0.65;;;25.90;90.30;;;;;;4935987;29;20217;-73
2023/06/30 09:40:43;;;;;;;1.85;0.40;;;25.40;90.50;;;;;;4935952;29;20236;-72
2023/06/30 09:43:15;;;;;;;1.42;0.50;;;25.50;90.80;;;;;;4936225;29;20239;-73
2023/06/30 09:45:44;;;;;;;0.65;0.50;;;25.70;90.40;;;;;;4936176;29;20220;-75
2023/06/30 09:48:11;;;;;;;3.25;0.68;;;25.90;90.10;;;;;;4936225;29;20215;-72
2023/06/30 09:50:38;;;;;;;0.93;0.52;;;25.90;89.50;;;;;;4936194;29;20213;-72
2023/06/30 09:53:05;;;;;;;0.82;0.43;;;25.50;90.70;;;;;;4936159;29;20315;-74
2023/06/30 09:55:32;;;;;;;1.23;0.60;;;25.40;90.30;;;;;;4936335;29;20264;-74
2023/06/30 09:58:00;;;;;;;1.58;0.60;;;26.00;90.80;;;;;;4936162;29;20209;-70
2023/06/30 10:00:28;;;;;;;2.05;0.55;;;26.30;90.70;;;;;;4935430;29;20592;-71
2023/06/30 10:03:03;;;;;;;2.83;0.77;;;26.00;90.60;;;;;;4935834;29;20225;-71
2023/06/30 10:05:30;;;;;;;2.25;0.70;;;26.00;90.80;;;;;;4936106;29;20210;-70
2023/06/30 10:07:58;;;;;;;2.38;0.75;;;26.30;90.80;;;;;;4935850;29;20204;-71
2023/06/30 10:10:26;;;;;;;1.35;0.60;;;26.30;90.20;;;;;;4935861;29;20556;-70
2023/06/30 10:12:54;;;;;;;1.00;0.68;;;26.30;90.40;;;;;;4935860;29;20229;-70
2023/06/30 10:15:23;;;;;;;0.77;0.60;;;26.20;90.10;;;;;;4936088;29;20230;-70
2023/06/30 10:17:50;;;;;;;1.30;0.60;;;25.80;90.30;;;;;;4935666;29;20205;-73
2023/06/30 10:20:18;;;;;;;1.77;0.63;;;26.10;92.00;;;;;;4935518;29;20236;-69
2023/06/30 10:22:45;;;;;;;0.85;0.60;;;26.00;90.90;;;;;;4934989;29;20691;-70
2023/06/30 10:25:15;;;;;;;1.23;0.73;;;25.80;90.40;;;;;;4935425;29;20640;-70
2023/06/30 10:27:43;;;;;;;1.02;0.50;;;25.40;90.70;;;;;;4935644;29;20308;-70
2023/06/30 10:30:13;;;;;;;1.65;0.70;;;25.40;91.10;;;;;;4935383;29;20584;-70
2023/06/30 10:32:41;;;;;;;1.75;0.50;;;25.40;92.10;;;;;;4935292;29;20260;-71
2023/06/30 10:35:13;;;;;;;3.80;0.60;;;25.90;91.10;;;;;;4935462;29;20295;-71
2023/06/30 10:37:40;;;;;;;2.22;0.60;;;25.90;90.80;;;;;;4935077;29;20248;-71
2023/06/30 10:40:08;;;;;;;0.98;0.60;;;26.00;92.00;;;;;;4934901;29;20319;-70
2023/06/30 10:42:37;;;;;;;1.75;0.68;;;26.20;91.10;;;;;;4935441;29;20296;-70
2023/06/30 10:45:05;;;;;;;2.00;0.75;;;26.10;91.50;;;;;;4938069;29;20211;-70
2023/06/30 10:47:39;;;;;;;1.65;0.70;;;26.20;91.20;;;;;;4938932;29;20215;-70
2023/06/30 10:50:14;;;;;;;1.70;0.70;;;25.90;90.80;;;;;;4939292;29;20220;-70
2023/06/30 10:52:49;;;;;;;2.28;0.65;;;25.50;92.10;;;;;;4938626;29;20216;-70
2023/06/30 10:55:20;;;;;;;1.42;0.70;;;25.50;92.10;;;;;;4938913;29;20239;-70
2023/06/30 10:57:51;;;;;;;1.05;0.60;;;25.40;91.40;;;;;;4938700;29;20694;-70
2023/06/30 11:00:18;;;;;;;2.08;0.90;;;25.50;92.90;;;;;;4938533;29;20236;-70
2023/06/30 11:02:50;;;;;;;1.45;0.77;;;25.40;92.00;;;;;;4938505;29;20209;-70
2023/06/30 11:05:25;;;;;;;2.08;0.70;;;25.70;92.20;;;;;;4938575;29;20219;-70
2023/06/30 11:07:53;;;;;;;1.67;0.60;;;25.90;91.40;;;;;;4938556;29;20212;-71
2023/06/30 11:10:35;;;;;;;0.82;0.75;;;25.90;92.00;;;;;;4938768;29;20209;-70
2023/06/30 11:13:05;;;;;;;1.38;0.75;;;25.40;92.60;;;;;;4938350;29;20235;-70
2023/06/30 11:15:37;;;;;;;4.15;0.90;;;25.10;92.80;;;;;;4938301;29;20216;-70
2023/06/30 11:18:06;;;;;;;1.08;0.70;;;24.80;92.50;;;;;;4938535;29;20215;-72
2023/06/30 11:20:34;;;;;;;0.95;0.70;;;24.70;93.50;;;;;;4938284;29;20793;-72
2023/06/30 11:23:02;;;;;;;2.42;0.98;;;24.80;92.50;;;;;;4938333;29;20229;-71
2023/06/30 11:25:30;;;;;;;0.90;0.60;;;25.00;92.00;;;;;;4938441;29;20205;-70
2023/06/30 11:27:58;;;;;;;1.77;0.90;;;25.20;92.20;;;;;;4938216;29;20219;-72
2023/06/30 11:30:25;;;;;;;0.90;0.50;;;25.10;93.70;;;;;;4938641;29;20345;-71
2023/06/30 11:32:58;;;;;;;3.28;0.50;;;25.10;91.40;;;;;;4938658;29;20241;-73
2023/06/30 11:35:26;;;;;;;1.38;0.60;;;25.20;91.40;;;;;;4938028;29;20228;-70
2023/06/30 11:37:54;;;;;;;2.05;0.63;;;25.30;90.80;;;;;;4937996;29;20223;-71
2023/06/30 11:40:22;;;;;;;1.52;0.70;;;25.10;91.50;;;;;;4924819;29;20229;-72
2023/06/30 11:42:49;;;;;;;2.28;0.70;;;24.90;92.20;;;;;;4936753;29;20231;-72
2023/06/30 11:45:20;;;;;;;2.97;1.42;;;25.10;91.40;;;;;;4930569;29;20202;-74
2023/06/30 11:47:50;;;;;;;2.70;0.80;;;25.40;91.60;;;;;;4916471;29;20213;-73
2023/06/30 11:50:17;;;;;;;1.25;0.68;;;25.70;90.10;;;;;;4919148;29;20636;-75
2023/06/30 11:52:45;;;;;;;1.17;0.60;;;25.90;90.80;;;;;;4916867;29;20217;-71
2023/06/30 11:55:15;;;;;;;1.92;0.68;;;25.80;90.70;;;;;;4917067;29;20268;-71
2023/06/30 11:57:43;;;;;;;0.85;0.68;;;25.90;92.10;;;;;;4920714;29;20568;-72
2023/06/30 12:00:12;;;;;;;2.42;0.75;;;25.90;91.00;;;;;;4917076;29;20549;-71
2023/06/30 12:02:42;;;;;;;1.23;0.70;;;26.00;90.80;;;;;;4916752;29;20679;-72
2023/06/30 12:05:13;;;;;;;1.55;0.60;;;26.20;90.80;;;;;;4917226;29;20214;-71
2023/06/30 12:07:40;;;;;;;1.35;0.70;;;25.80;90.70;;;;;;4917216;29;20316;-72
2023/06/30 12:10:08;;;;;;;1.38;0.73;;;25.40;90.80;;;;;;4916834;29;20218;-74
2023/06/30 12:12:38;;;;;;;1.85;1.00;;;25.40;91.90;;;;;;4916911;29;20210;-74
2023/06/30 12:15:07;;;;;;;3.22;0.80;;;25.50;92.20;;;;;;4916477;29;20210;-71
2023/06/30 12:17:36;;;;;;;2.78;0.88;;;25.20;92.30;;;;;;4916592;29;20234;-73
2023/06/30 12:20:05;;;;;;;2.83;0.80;;;25.20;91.60;;;;;;4917312;29;20220;-73
2023/06/30 12:22:35;;;;;;;0.85;0.80;;;25.30;91.90;;;;;;4917354;29;20324;-72
2023/06/30 12:25:02;;;;;;;1.50;0.70;;;25.30;92.30;;;;;;4918532;29;20216;-72
2023/06/30 12:27:31;;;;;;;1.60;0.63;;;25.30;92.30;;;;;;4918458;29;20550;-72
2023/06/30 12:29:59;;;;;;;1.90;0.80;;;25.50;92.40;;;;;;4918572;29;20216;-74
2023/06/30 12:32:28;;;;;;;2.33;0.85;;;25.80;92.30;;;;;;4918537;29;20214;-73
2023/06/30 12:35:01;;;;;;;1.52;0.50;;;25.50;91.70;;;;;;4918255;29;20230;-72
2023/06/30 12:37:29;;;;;;;1.42;0.70;;;25.40;91.90;;;;;;4917930;29;20213;-73
2023/06/30 12:39:58;;;;;;;2.38;1.00;;;25.40;91.20;;;;;;4918311;29;20222;-73
2023/06/30 12:42:28;;;;;;;2.25;0.80;;;25.30;92.10;;;;;;4918195;29;20665;-73
2023/06/30 12:44:55;;;;;;;1.75;1.10;;;25.40;92.70;;;;;;4917788;29;20222;-73
2023/06/30 12:47:23;;;;;;;3.28;0.80;;;25.20;92.70;;;;;;4918178;29;20255;-73
2023/06/30 12:49:50;;;;;;;2.65;0.80;;;25.00;91.90;;;;;;4918176;29;20220;-73
2023/06/30 12:52:18;;;;;;;2.08;0.60;;;24.70;92.50;;;;;;4918072;29;20249;-72
2023/06/30 12:54:45;;;;;;;3.08;0.90;;;24.70;92.00;;;;;;4918053;29;20363;-72
2023/06/30 12:57:12;;;;;;;2.38;0.80;;;24.50;92.30;;;;;;4918000;29;20205;-73
2023/06/30 12:59:39;;;;;;;0.93;0.60;;;24.50;91.90;;;;;;4917654;29;20206;-73
2023/06/30 13:02:06;;;;;;;1.55;0.82;;;24.60;92.30;;;;;;4918085;29;20251;-71
2023/06/30 13:04:34;;;;;;;1.70;0.90;;;24.60;93.50;;;;;;4920853;29;20240;-72
2023/06/30 13:07:01;;;;;;;1.65;0.80;;;24.60;93.30;;;;;;4920945;29;20210;-71
2023/06/30 13:09:28;;;;;;;3.17;0.90;;;24.70;93.50;;;;;;4919762;29;20237;-71
2023/06/30 13:11:55;;;;;;;3.00;1.20;;;25.00;93.90;;;;;;4920284;29;20205;-70
2023/06/30 13:14:22;;;;;;;1.70;0.93;;;25.00;93.20;;;;;;4917913;29;20240;-70
2023/06/30 13:16:49;;;;;;;2.15;1.02;;;25.00;93.30;;;;;;4917848;29;20210;-70
2023/06/30 13:19:16;;;;;;;0.70;0.70;;;25.10;92.20;;;;;;4918254;29;20206;-72
2023/06/30 13:21:44;;;;;;;1.92;0.90;;;25.10;93.60;;;;;;4917668;29;20708;-71
2023/06/30 13:24:11;;;;;;;1.58;0.80;;;25.20;93.40;;;;;;4917169;29;20318;-71
2023/06/30 13:26:38;;;;;;;1.55;0.80;;;25.20;93.50;;;;;;4917012;29;20216;-71
2023/06/30 13:29:05;;;;;;;2.13;0.63;;;25.40;93.10;;;;;;4917432;29;20669;-71
2023/06/30 13:31:32;;;;;;;2.60;0.80;;;25.50;93.30;;;;;;4917495;29;20209;-71
2023/06/30 13:33:59;;;;;;;1.95;0.70;;;25.50;93.40;;;;;;4917520;29;20336;-71
2023/06/30 13:36:27;;;;;;;2.00;0.68;;;25.40;93.70;;;;;;4917134;29;20227;-70
2023/06/30 13:38:56;;;;;;;2.85;0.90;;;25.40;93.00;;;;;;4916982;29;20221;-70
2023/06/30 13:41:25;;;;;;;1.40;0.90;;;25.10;93.60;;;;;;4917048;29;20267;-70
2023/06/30 13:43:52;;;;;;;2.33;0.68;;;25.00;93.30;;;;;;4917128;29;20704;-71
2023/06/30 13:46:19;;;;;;;1.35;0.68;;;24.90;93.10;;;;;;4917239;29;20213;-70
2023/06/30 13:48:46;;;;;;;0.60;0.50;;;24.60;93.80;;;;;;4917348;29;20578;-71
2023/06/30 13:51:13;;;;;;;1.10;0.60;;;24.70;93.90;;;;;;4917099;29;20224;-70
2023/06/30 13:53:40;;;;;;;1.13;0.63;;;24.70;93.80;;;;;;4916857;29;20226;-70
2023/06/30 13:56:08;;;;;;;2.53;0.80;;;24.90;93.30;;;;;;4916949;29;20214;-71
2023/06/30 13:58:35;;;;;;;1.00;0.60;;;25.00;92.90;;;;;;4914904;29;20205;-71
2023/06/30 14:01:02;;;;;;;1.38;0.80;;;24.90;93.10;;;;;;4914623;29;20300;-69
2023/06/30 14:03:29;;;;;;;1.33;0.70;;;24.60;92.60;;;;;;4915827;29;20570;-71
2023/06/30 14:05:55;;;;;;;0.88;0.65;;;24.60;93.20;;;;;;4915891;29;20235;-70
2023/06/30 14:08:23;;;;;;;1.60;0.85;;;24.80;93.20;;;;;;4915626;29;20300;-70
2023/06/30 14:10:49;;;;;;;0.95;0.75;;;24.80;93.40;;;;;;4915272;29;20214;-70
2023/06/30 14:13:18;;;;;;;1.13;0.70;;;24.90;93.50;;;;;;4915539;29;20322;-71
2023/06/30 14:15:44;;;;;;;1.60;0.80;;;25.00;93.40;;;;;;4915529;29;20308;-71
2023/06/30 14:18:11;;;;;;;2.63;0.70;;;25.10;93.90;;;;;;4915765;29;20296;-71
2023/06/30 14:20:38;;;;;;;1.95;0.55;;;25.20;94.00;;;;;;4919081;29;20205;-71
2023/06/30 14:23:05;;;;;;;2.67;0.85;;;25.20;93.80;;;;;;4919136;29;20237;-70
2023/06/30 14:25:32;;;;;;;1.30;0.60;;;25.10;94.50;;;;;;4919692;29;20296;-69
2023/06/30 14:27:59;;;;;;;3.15;0.82;;;25.20;93.90;;;;;;4919485;29;20214;-69
2023/06/30 14:30:31;;;;;;;3.00;0.90;;;25.00;93.60;;;;;;4933926;29;20212;-70
2023/06/30 14:33:00;;;;;;;2.10;0.80;;;25.00;93.60;;;;;;4938143;29;20278;-70
2023/06/30 14:35:28;;;;;;;1.13;0.60;;;24.90;92.90;;;;;;4938073;29;20212;-70
2023/06/30 14:37:54;;;;;;;1.05;0.57;;;24.90;93.40;;;;;;4937824;29;20220;-69
2023/06/30 14:40:22;;;;;;;2.00;0.80;;;24.90;93.60;;;;;;4923702;29;20209;-69
2023/06/30 14:42:49;;;;;;;2.85;0.75;;;24.90;93.50;;;;;;4918875;29;20210;-70
2023/06/30 14:45:16;;;;;;;4.55;1.08;;;24.90;94.00;;;;;;4918863;29;20684;-69
2023/06/30 14:47:44;;;;;;;6.60;1.05;;;25.00;93.90;;;;;;4919056;29;20212;-68
2023/06/30 14:50:11;;;;;;;1.90;0.70;;;25.10;93.70;;;;;;4918900;29;20218;-68
2023/06/30 14:52:38;;;;;;;2.63;0.90;;;25.10;93.70;;;;;;4918934;29;20243;-72
2023/06/30 14:55:05;;;;;;;4.85;0.90;;;25.20;93.40;;;;;;4918798;29;20206;-70
2023/06/30 14:57:32;;;;;;;1.30;0.70;;;25.30;93.70;;;;;;4918460;29;20210;-70
2023/06/30 14:59:59;;;;;;;0.98;0.70;;;25.20;94.00;;;;;;4918392;29;20213;-69
2023/06/30 15:02:26;;;;;;;1.75;0.80;;;25.10;93.40;;;;;;4918569;29;20215;-70
2023/06/30 15:04:54;;;;;;;1.85;0.70;;;25.30;94.00;;;;;;4918344;29;20799;-70
2023/06/30 15:07:21;;;;;;;1.33;0.70;;;25.40;93.30;;;;;;4918538;29;20210;-69
2023/06/30 15:09:47;;;;;;;2.08;0.80;;;25.20;93.30;;;;;;4918616;29;20209;-70
2023/06/30 15:12:14;;;;;;;3.85;0.70;;;25.10;92.70;;;;;;4918795;29;20247;-70
2023/06/30 15:14:41;;;;;;;2.60;0.70;;;25.00;92.90;;;;;;4918537;29;20236;-70
2023/06/30 15:17:08;;;;;;;2.80;0.63;;;24.90;93.00;;;;;;4918810;29;20217;-71
2023/06/30 15:19:35;;;;;;;1.10;0.60;;;24.80;94.10;;;;;;4918173;29;20729;-69
2023/06/30 15:22:03;;;;;;;1.08;0.88;;;24.90;94.70;;;;;;4918411;29;20229;-70
2023/06/30 15:24:30;;;;;;;0.75;0.60;;;24.90;94.10;;;;;;4918359;29;20244;-71
2023/06/30 15:26:57;;;;;;;2.65;0.75;;;25.10;94.30;;;;;;4918474;29;20604;-72
2023/06/30 15:29:24;;;;;;;1.90;0.80;;;25.00;93.60;;;;;;4917880;29;20205;-71
2023/06/30 15:31:50;;;;;;;2.05;0.77;;;25.00;93.60;;;;;;4918262;29;20245;-70
2023/06/30 15:34:17;;;;;;;1.13;0.77;;;24.90;94.30;;;;;;4918136;29;20229;-74
2023/06/30 15:36:44;;;;;;;3.13;0.55;;;24.90;93.90;;;;;;4918203;29;20221;-72
2023/06/30 15:39:12;;;;;;;1.35;0.65;;;24.60;94.40;;;;;;4917837;29;20545;-72
2023/06/30 15:41:39;;;;;;;3.53;0.95;;;24.40;94.00;;;;;;4918079;29;20312;-69
2023/06/30 15:44:06;;;;;;;2.70;0.80;;;24.30;94.60;;;;;;4918035;29;20229;-69
2023/06/30 15:46:33;;;;;;;2.53;0.98;;;24.40;94.70;;;;;;4917912;29;20250;-71
2023/06/30 15:48:59;;;;;;;1.38;0.60;;;24.30;94.80;;;;;;4917997;29;20293;-71
2023/06/30 15:51:26;;;;;;;1.30;0.70;;;24.20;95.80;;;;;;4917768;29;20210;-70
2023/06/30 15:53:53;;;;;;;2.03;0.80;;;24.10;95.20;;;;;;4918067;29;20229;-70
2023/06/30 15:56:22;;;;;;;3.13;0.70;;;24.20;94.90;;;;;;4918575;29;20264;-72
2023/06/30 15:58:49;;;;;;;0.95;0.60;;;24.20;94.90;;;;;;4918545;29;20550;-71
2023/06/30 16:01:16;;;;;;;1.52;0.70;;;24.40;94.80;;;;;;4917891;29;20305;-70
2023/06/30 16:03:43;;;;;;;2.28;0.60;;;24.70;95.00;;;;;;4917640;29;20233;-71
2023/06/30 16:06:09;;;;;;;3.30;0.73;;;24.90;95.20;;;;;;4917990;29;20224;-70
2023/06/30 16:08:36;;;;;;;1.60;0.80;;;25.00;94.90;;;;;;4917240;29;20637;-72
2023/06/30 16:11:03;;;;;;;0.95;0.63;;;24.90;95.00;;;;;;4917685;29;20213;-73
2023/06/30 16:13:31;;;;;;;2.65;0.70;;;24.90;95.10;;;;;;4917179;29;20332;-73
2023/06/30 16:15:58;;;;;;;1.10;0.65;;;24.80;95.40;;;;;;4917837;29;20297;-70
2023/06/30 16:18:25;;;;;;;1.77;0.73;;;24.70;95.10;;;;;;4917286;29;20292;-72
2023/06/30 16:20:52;;;;;;;4.15;0.65;;;24.80;95.50;;;;;;4917109;29;20305;-72
2023/06/30 16:23:19;;;;;;;1.38;0.68;;;24.90;95.90;;;;;;4914813;29;20727;-69
2023/06/30 16:25:46;;;;;;;1.25;0.68;;;24.80;94.70;;;;;;4920570;29;20217;-71
2023/06/30 16:28:13;;;;;;;1.20;0.77;;;24.90;94.60;;;;;;4918392;29;20302;-70
2023/06/30 16:30:42;;;;;;;1.50;0.68;;;24.70;93.60;;;;;;4929721;29;20327;-70
2023/06/30 16:33:09;;;;;;;2.17;0.80;;;24.70;94.20;;;;;;4935986;29;20241;-69
2023/06/30 16:35:36;;;;;;;1.10;0.77;;;24.90;94.40;;;;;;4917053;29;20297;-71
2023/06/30 16:38:03;;;;;;;0.90;0.60;;;24.90;94.20;;;;;;4925941;29;20798;-69
2023/06/30 16:40:30;;;;;;;0.75;0.63;;;24.90;95.10;;;;;;4931831;29;20221;-72
2023/06/30 16:42:57;;;;;;;0.70;0.60;;;24.90;95.30;;;;;;4924679;29;20313;-71
2023/06/30 16:45:24;;;;;;;2.25;0.93;;;24.80;94.80;;;;;;4935614;29;20239;-71
2023/06/30 16:47:52;;;;;;;2.38;0.60;;;24.70;94.00;;;;;;4921722;29;20213;-71
2023/06/30 16:50:19;;;;;;;1.70;0.63;;;24.60;94.70;;;;;;4916259;29;20667;-72
2023/06/30 16:52:46;;;;;;;1.13;0.68;;;24.60;94.20;;;;;;4915847;29;20257;-70
2023/06/30 16:55:13;;;;;;;2.75;0.70;;;24.70;94.40;;;;;;4916279;29;20209;-71
2023/06/30 16:57:40;;;;;;;2.15;0.70;;;24.70;94.40;;;;;;4916702;29;20215;-71
2023/06/30 17:00:08;;;;;;;2.58;0.70;;;24.80;94.10;;;;;;4916640;29;20217;-71
2023/06/30 17:02:35;;;;;;;2.17;0.68;;;24.60;93.50;;;;;;4916305;29;20233;-72
2023/06/30 17:05:04;;;;;;;1.67;0.60;;;24.40;93.80;;;;;;4929896;29;20212;-70
2023/06/30 17:07:31;;;;;;;1.45;0.65;;;24.40;93.90;;;;;;4935511;29;20231;-71
2023/06/30 17:09:57;;;;;;;2.15;0.60;;;24.50;94.30;;;;;;4924366;29;20565;-72
2023/06/30 17:12:24;;;;;;;1.25;0.65;;;24.50;93.90;;;;;;4917402;29;20239;-71
2023/06/30 17:14:51;;;;;;;18.77;9.10;;;24.60;93.50;;;;;;4922616;29;20643;-72
2023/06/30 17:17:18;;;;;;;3.55;1.33;;;24.50;94.20;;;;;;4916177;29;20209;-72
2023/06/30 17:19:45;;;;;;;1.02;0.70;;;24.30;94.10;;;;;;4927894;29;20209;-69
2023/06/30 17:22:13;;;;;;;3.80;0.60;;;24.30;94.40;;;;;;4920484;29;20213;-71
2023/06/30 17:24:40;;;;;;;2.22;0.60;;;24.40;93.90;;;;;;4916140;29;20360;-71
2023/06/30 17:27:07;;;;;;;0.93;0.75;;;24.30;93.30;;;;;;4915850;29;20239;-71
2023/06/30 17:29:34;;;;;;;0.80;0.60;;;24.20;93.50;;;;;;4916035;29;20216;-71
2023/06/30 17:32:02;;;;;;;1.00;0.60;;;24.00;93.70;;;;;;4916030;29;20293;-72
2023/06/30 17:34:29;;;;;;;2.42;0.60;;;24.00;93.80;;;;;;4954497;23;20314;-73
2023/06/30 17:37:02;;;;;;;1.48;0.55;;;23.90;94.20;;;;;;4953829;28;20215;-73
2023/06/30 17:39:30;;;;;;;2.42;0.77;;;24.00;93.90;;;;;;4954279;28;20270;-74
2023/06/30 17:41:57;;;;;;;0.80;0.60;;;24.00;94.40;;;;;;4954305;28;20631;-74
2023/06/30 17:44:24;;;;;;;3.15;0.63;;;24.00;94.60;;;;;;4947148;28;20719;-75
2023/06/30 17:46:51;;;;;;;3.28;0.80;;;23.90;94.30;;;;;;4934782;29;20251;-74
2023/06/30 17:49:23;;;;;;;1.95;0.90;;;23.80;94.40;;;;;;4934483;29;20240;-73
2023/06/30 17:51:50;;;;;;;1.52;0.82;;;23.90;94.40;;;;;;4934688;29;20219;-74
2023/06/30 17:54:17;;;;;;;1.70;0.70;;;23.70;94.40;;;;;;4938332;29;20359;-76
2023/06/30 17:56:46;;;;;;;1.83;0.80;;;23.70;94.50;;;;;;4934660;29;20299;-75
2023/06/30 17:59:14;;;;;;;2.28;0.90;;;23.60;94.30;;;;;;4935208;29;20291;-75
2023/06/30 18:01:41;;;;;;;4.88;0.93;;;23.40;94.70;;;;;;4934217;29;20216;-75
2023/06/30 18:04:09;;;;;;;0.95;0.63;;;23.40;94.50;;;;;;4939247;28;20703;-75
2023/06/30 18:06:58;;;;;;;3.67;0.68;;;23.30;94.50;;;;;;4934710;29;20221;-74
2023/06/30 18:09:24;;;;;;;1.67;0.80;;;23.30;94.70;;;;;;4944430;28;20299;-75
2023/06/30 18:11:53;;;;;;;0.93;0.60;;;23.10;95.00;;;;;;4934507;29;20315;-75
2023/06/30 18:14:19;;;;;;;3.20;1.10;;;23.20;94.70;;;;;;4940613;29;20879;-72
2023/06/30 18:16:47;;;;;;;2.78;0.70;;;23.20;94.60;;;;;;4934075;29;20204;-74
2023/06/30 18:19:15;;;;;;;1.02;0.60;;;23.20;94.60;;;;;;4939504;29;20276;-72
2023/06/30 18:21:42;;;;;;;1.13;0.60;;;23.20;94.70;;;;;;4934395;29;20216;-72
2023/06/30 18:24:09;;;;;;;1.95;0.90;;;23.20;94.90;;;;;;4939483;28;20320;-71
2023/06/30 18:26:37;;;;;;;1.35;0.60;;;23.10;94.20;;;;;;4934059;29;20300;-74
2023/06/30 18:29:05;;;;;;;2.97;0.80;;;23.10;94.70;;;;;;4935999;29;20207;-74